N'Djamena International Airport

FTTJ · N’Djaména, 乍得

METAR的历史 FTTJ · N'Djamena International Airport

下面你可以看到过去几天的METARs。 选择年份以浏览从2007年开始的旧METAR。

2024年4月14日

时间 代码 天气 温度 能见度 天花板 METAR/SPECI
01:00
M
29 °C 7 km - 330° 330° 3 kt METAR FTTJ 140000Z 33003KT 7000 NSC 29/04 Q1005 NOSIG
00:00
M
31 °C 7 km - 360° 360° 4 kt METAR FTTJ 132300Z 36004KT 7000 NSC 31/03 Q1006 NOSIG

2024年4月13日

时间 代码 天气 温度 能见度 天花板 METAR/SPECI
23:00
M
32 °C 7 km - 360° 360° 3 kt METAR FTTJ 132200Z 36003KT 7000 NSC 32/01 Q1006 NOSIG
22:00
M
34 °C 6 km - 350° 350° 5 kt METAR FTTJ 132100Z 35005KT 6000 NSC 34/M01 Q1006 NOSIG
21:00
I
36 °C 4 km - 090° 090° 8 kt METAR FTTJ 132000Z 09008KT 360V120 4000 DU NSC 36/M02 Q1006 NOSIG
20:00
I
35 °C 4 km - 020° 020° 3 kt METAR FTTJ 131900Z 02003KT 4000 DU NSC 35/M01 Q1005 NOSIG
19:00
I
38 °C 4 km - 010° 010° 3 kt METAR FTTJ 131800Z 01003KT 4000 DU NSC 38/M02 Q1004 NOSIG
18:00
M
41 °C 6 km - 030° 030° 4 kt METAR FTTJ 131700Z 03004KT 6000 NSC 41/M03 Q1004 NOSIG
17:00
M
43 °C 7 km - 040° 040° 4 kt METAR FTTJ 131600Z 04004KT 360V080 7000 NSC 43/M05 Q1003 NOSIG
16:00
V
43 °C 8 km - 030° 030° 4 kt METAR FTTJ 131500Z 03004KT 350V070 8000 NSC 43/M05 Q1003 NOSIG
15:00
V
43 °C 8 km - 100° 100° 3 kt METAR FTTJ 131400Z 10003KT 010V170 8000 NSC 43/M05 Q1003 NOSIG
14:00
V
44 °C 8 km - 090° 090° 4 kt METAR FTTJ 131300Z 09004KT 040V190 8000 NSC 44/M04 Q1004 NOSIG
13:00
V
43 °C 8 km - 100° 100° 6 kt METAR FTTJ 131200Z 10006KT 050V150 8000 NSC 43/M05 Q1005 NOSIG
12:00
V
43 °C 8 km - 110° 110° 11 kt METAR FTTJ 131100Z 11011KT 070V140 8000 NSC 43/M05 Q1006 NOSIG
11:00
V
42 °C 8 km - 080° 080° 14 kt METAR FTTJ 131000Z 08014KT 8000 NSC 42/M06 Q1007 NOSIG
10:00
M
39 °C 7 km - 070° 070° 12 kt METAR FTTJ 130900Z 07012KT 7000 NSC 39/M05 Q1008 NOSIG
08:00
M
33 °C 6 km - 040° 040° 9 kt METAR FTTJ 130700Z 04009KT 6000 NSC 33/M05 Q1007 NOSIG
07:00
M
28 °C 6 km - 050° 050° 4 kt METAR FTTJ 130600Z 05004KT 6000 NSC 28/M02 Q1007 NOSIG
06:00
M
25 °C 6 km - 050° 050° 5 kt METAR FTTJ 130500Z 05005KT 6000 NSC 25/M03 Q1007 NOSIG
05:00
M
27 °C 6 km - 060° 060° 4 kt METAR FTTJ 130400Z 06004KT 6000 NSC 27/M03 Q1006 NOSIG
03:00
M
28 °C 6 km - 070° 070° 5 kt METAR FTTJ 130200Z 07005KT 6000 NSC 28/M03 Q1006 NOSIG
02:00
M
29 °C 6 km - 060° 060° 5 kt METAR FTTJ 130100Z 06005KT 6000 NSC 29/01 Q1006 NOSIG
01:00
M
29 °C 6 km - 050° 050° 3 kt METAR FTTJ 130000Z 05003KT 6000 NSC 29/02 Q1006 NOSIG
00:00
M
29 °C 6 km - Var Var 2 kt METAR FTTJ 122300Z VRB02KT 6000 NSC 29/02 Q1006 NOSIG

2024年4月12日

时间 代码 天气 温度 能见度 天花板 METAR/SPECI
23:00
M
30 °C 6 km - 360° 360° 3 kt METAR FTTJ 122200Z 36003KT 6000 NSC 30/00 Q1006 NOSIG
22:00
M
32 °C 6 km - Var Var 2 kt METAR FTTJ 122100Z VRB02KT 6000 NSC 32/00 Q1007 NOSIG
21:00
M
34 °C 6 km - Var Var 4 kt METAR FTTJ 122000Z VRB04KT 6000 NSC 34/01 Q1006 NOSIG
20:00
M
35 °C 6 km - 250° 250° 4 kt METAR FTTJ 121900Z 25004KT 180V280 6000 NSC 35/00 Q1005 NOSIG
19:00
M
36 °C 6 km - 360° 360° 0 kt METAR FTTJ 121800Z 00000KT 6000 NSC 36/M01 Q1005 NOSIG
18:00
M
40 °C 6 km - 020° 020° 3 kt METAR FTTJ 121700Z 02003KT 6000 NSC 40/M05 Q1004 NOSIG
17:00
V
43 °C 8 km - Var Var 2 kt METAR FTTJ 121600Z VRB02KT 8000 NSC 43/M05 Q1004 NOSIG
16:00
V
43 °C 8 km - 080° 080° 5 kt METAR FTTJ 121500Z 08005KT 350V130 8000 NSC 43/M05 Q1004 NOSIG
15:00
V
43 °C 8 km - 150° 150° 7 kt METAR FTTJ 121400Z 15007KT 110V190 8000 NSC 43/M02 Q1005 NOSIG
14:00
V
43 °C 8 km - 130° 130° 8 kt METAR FTTJ 121300Z 13008KT 100V190 8000 NSC 43/M05 Q1005 NOSIG
13:00
M
42 °C 6 km - 100° 100° 10 kt METAR FTTJ 121200Z 10010KT 070V140 6000 NSC 42/M05 Q1007 NOSIG
12:00
M
43 °C 6 km - 070° 070° 12 kt METAR FTTJ 121100Z 07012KT 010V110 6000 NSC 43/M05 Q1008 NOSIG
11:00
M
41 °C 6 km - 070° 070° 16 kt METAR FTTJ 121000Z 07016KT 050V110 6000 NSC 41/M06 Q1009 NOSIG
10:00
M
37 °C 6 km - 070° 070° 14 kt METAR FTTJ 120900Z 07014KT 6000 NSC 37/M04 Q1009 NOSIG
09:00
M
35 °C 6 km - 070° 070° 13 kt METAR FTTJ 120800Z 07013KT 6000 NSC 35/M04 Q1010 NOSIG
08:00
M
32 °C 6 km - 060° 060° 12 kt METAR FTTJ 120700Z 06012KT 6000 NSC 32/M05 Q1009 NOSIG
07:00
M
28 °C 6 km - 050° 050° 8 kt METAR FTTJ 120600Z 05008KT 6000 NSC 28/M06 Q1008 NOSIG
06:00
M
27 °C 7 km - 050° 050° 7 kt METAR FTTJ 120500Z 05007KT 7000 NSC 27/M06 Q1007 NOSIG
05:00
V
27 °C 8 km - 040° 040° 8 kt METAR FTTJ 120400Z 04008KT 8000 NSC 27/M07 Q1007 NOSIG
03:00
V
29 °C 8 km - 040° 040° 7 kt METAR FTTJ 120200Z 04007KT 8000 NSC 29/M08 Q1006 NOSIG
02:00
V
30 °C 8 km - 040° 040° 9 kt METAR FTTJ 120100Z 04009KT 8000 NSC 30/M08 Q1006 NOSIG
00:00
V
33 °C 8 km - 020° 020° 8 kt METAR FTTJ 112300Z 02008KT 8000 NSC 33/M10 Q1007 NOSIG

2024年4月11日

时间 代码 天气 温度 能见度 天花板 METAR/SPECI
23:00
M
33 °C 7 km - 010° 010° 7 kt METAR FTTJ 112200Z 01007KT 7000 NSC 33/M07 Q1007 NOSIG
22:00
M
34 °C 6 km - 360° 360° 6 kt METAR FTTJ 112100Z 36006KT 6000 NSC 34/M07 Q1006 NOSIG
21:00
M
36 °C 6 km - 020° 020° 8 kt METAR FTTJ 112000Z 02008KT 6000 NSC 36/M07 Q1006 NOSIG
20:00
M
37 °C 6 km - 010° 010° 8 kt METAR FTTJ 111900Z 01008KT 6000 NSC 37/M07 Q1005 NOSIG
19:00
M
38 °C 6 km - 020° 020° 7 kt METAR FTTJ 111800Z 02007KT 6000 NSC 38/M06 Q//// NOSIG
18:00
M
40 °C 6 km - 030° 030° 10 kt METAR FTTJ 111700Z 03010KT 6000 NSC 40/M07 Q1004 TEMPO 4000 DU
17:00
V
42 °C 8 km - 050° 050° 9 kt METAR FTTJ 111600Z 05009KT 010V080 8000 NSC 42/M05 Q//// NOSIG
16:00
V
43 °C 8 km - 060° 060° 10 kt METAR FTTJ 111500Z 06010KT 030V110 8000 NSC 43/M08 Q1005 NOSIG
15:00
L
44 °C 1,2 km - 030° 030° 8 kt METAR FTTJ 111400Z 03008KT 350V080 1200 R05/1600N NSC 44/M07 Q1005 NOSIG
14:00
V
43 °C 8 km - 040° 040° 9 kt METAR FTTJ 111300Z 04009KT 350V060 8000 NSC 43/M07 Q1006 NOSIG
13:00
V
43 °C 8 km - 060° 060° 12 kt METAR FTTJ 111200Z 06012KT 020V090 8000 NSC 43/M08 Q1007 NOSIG
12:00
V
42 °C 8 km - 060° 060° 16 kt METAR FTTJ 111100Z 06016KT 8000 NSC 42/M09 Q1008 NOSIG
11:00
V
40 °C 8 km - 050° 050° 18 kt METAR FTTJ 111000Z 05018KT 020V080 8000 NSC 40/M10 Q1009 NOSIG
10:00
V
38 °C 8 km - 070° 070° 15 kt METAR FTTJ 110900Z 07015KT 8000 NSC 38/M08 Q1010 NOSIG
09:00
V
35 °C 8 km - 060° 060° 17 kt METAR FTTJ 110800Z 06017KT 8000 NSC 35/M08 Q1010 NOSIG
08:00
V
31 °C 8 km - 050° 050° 14 kt METAR FTTJ 110700Z 05014KT 8000 NSC 31/M09 Q1010 NOSIG
07:00
V
27 °C 8 km - 040° 040° 6 kt METAR FTTJ 110600Z 04006KT 8000 NSC 27/M09 Q1008 NOSIG
报告变更